Time;durP1;ratioP1;P1;durP2;ratioP2;P2;SDS_P1;SDS_P2;PMS_P1;PMS_P2;Temp;Humidity;BMP_temperature;BMP_pressure;BME280_temperature;BME280_humidity;BME280_pressure;Samples;Min_cycle;Max_cycle;Signal;HPM_P1;HPM_P2
2023/03/14 00:02:10;;;;;;;14.40;3.40;;;;;;;9.54;100.00;98798.84;5265626;28;20031;-68
2023/03/14 00:04:41;;;;;;;10.23;3.60;;;;;;;9.43;100.00;98804.47;5265147;28;20091;-68
2023/03/14 00:07:13;;;;;;;10.77;3.23;;;;;;;9.44;100.00;98807.00;5264707;28;20115;-67
2023/03/14 00:09:44;;;;;;;13.47;3.37;;;;;;;9.37;100.00;98810.78;5264977;28;20444;-67
2023/03/14 00:12:16;;;;;;;8.67;2.60;;;;;;;9.54;99.40;98798.84;5265327;28;20086;-68
2023/03/14 00:14:47;;;;;;;9.73;2.47;;;;;;;9.33;99.40;98796.19;5264385;28;20480;-68
2023/03/14 00:17:18;;;;;;;7.63;2.37;;;;;;;9.26;100.00;98805.16;5264926;28;20055;-67
2023/03/14 00:19:52;;;;;;;7.50;2.10;;;;;;;9.11;100.00;98812.63;5264099;28;20536;-67
2023/03/14 00:22:23;;;;;;;8.35;2.40;;;;;;;9.18;100.00;98820.19;5264508;28;20032;-67
2023/03/14 00:24:55;;;;;;;8.60;2.27;;;;;;;9.18;97.88;98810.63;5263425;28;20025;-68
2023/03/14 00:27:26;;;;;;;9.43;2.47;;;;;;;9.26;95.18;98831.97;5264535;28;20380;-69
2023/03/14 00:29:58;;;;;;;11.30;3.17;;;;;;;9.31;95.69;98834.41;5264396;28;20461;-69
2023/03/14 00:32:29;;;;;;;9.45;2.35;;;;;;;9.26;95.48;98836.34;5262691;28;20053;-68
2023/03/14 00:35:01;;;;;;;10.47;2.33;;;;;;;9.35;95.33;98833.38;5264291;28;20028;-68
2023/03/14 00:37:32;;;;;;;10.83;2.20;;;;;;;9.32;95.03;98828.28;5264206;28;20040;-67
2023/03/14 00:40:06;;;;;;;13.90;2.93;;;;;;;9.55;92.52;98842.16;5264198;28;20131;-68
2023/03/14 00:42:37;;;;;;;7.90;2.35;;;;;;;9.39;94.25;98834.94;5264924;28;20032;-68
2023/03/14 00:45:10;;;;;;;11.30;3.00;;;;;;;9.57;91.35;98835.13;5264009;28;20028;-68
2023/03/14 00:47:45;;;;;;;9.18;2.17;;;;;;;9.66;91.53;98837.38;5264804;28;20029;-67
2023/03/14 00:50:16;;;;;;;11.95;3.15;;;;;;;9.71;91.26;98847.56;5263900;28;20025;-68
2023/03/14 00:52:48;;;;;;;7.63;2.70;;;;;;;9.77;89.82;98842.13;5264033;28;20029;-68
2023/03/14 00:55:20;;;;;;;9.40;2.70;;;;;;;9.83;89.17;98845.31;5262897;28;20071;-67
2023/03/14 00:57:51;;;;;;;6.83;2.27;;;;;;;9.89;88.92;98836.44;5264098;28;20025;-68
2023/03/14 01:00:25;;;;;;;8.10;2.30;;;;;;;9.88;89.98;98826.06;5263491;28;20029;-69
2023/03/14 01:02:57;;;;;;;9.82;2.85;;;;;;;9.96;87.55;98824.84;5263937;28;20090;-66
2023/03/14 01:05:28;;;;;;;8.33;2.27;;;;;;;9.90;88.32;98835.53;5263698;28;20029;-67
2023/03/14 01:08:00;;;;;;;12.23;2.97;;;;;;;10.00;87.37;98834.22;5263660;28;20093;-67
2023/03/14 01:10:32;;;;;;;9.30;2.38;;;;;;;10.04;86.66;98824.53;5263524;28;20025;-67
2023/03/14 01:13:04;;;;;;;9.17;2.47;;;;;;;10.03;87.71;98828.88;5263547;28;20021;-67
2023/03/14 01:15:36;;;;;;;10.77;2.73;;;;;;;10.09;85.98;98832.97;5263193;28;20104;-67
2023/03/14 01:18:08;;;;;;;;;;;;;;;10.14;85.48;98817.16;5263794;28;20029;-67
2023/03/14 01:20:39;;;;;;;11.85;2.88;;;;;;;10.14;86.04;98823.25;5263303;28;19909;-68
2023/03/14 01:23:10;;;;;;;9.37;2.53;;;;;;;10.13;86.02;98818.09;5263378;28;20029;-66
2023/03/14 01:25:42;;;;;;;11.73;2.70;;;;;;;10.09;85.38;98814.75;5263191;28;20033;-67
2023/03/14 01:28:13;;;;;;;7.50;1.73;;;;;;;10.19;84.17;98831.69;5263145;28;20580;-68
2023/03/14 01:30:45;;;;;;;9.47;1.70;;;;;;;10.12;84.96;98808.59;5261971;28;20025;-67
2023/03/14 01:33:16;;;;;;;7.47;1.70;;;;;;;10.12;84.17;98811.19;5263469;28;20069;-68
2023/03/14 01:35:50;;;;;;;5.03;1.90;;;;;;;10.10;84.90;98800.84;5245181;28;20048;-67
2023/03/14 01:38:21;;;;;;;6.57;1.85;;;;;;;10.06;85.51;98808.84;5262676;28;20025;-68
2023/03/14 01:40:52;;;;;;;5.77;2.40;;;;;;;10.04;84.98;98801.09;5263728;28;20402;-67
2023/03/14 01:43:24;;;;;;;7.10;2.27;;;;;;;10.05;84.40;98805.41;5263181;28;20032;-67
2023/03/14 01:46:02;;;;;;;7.00;2.13;;;;;;;10.11;84.89;98797.34;5262953;28;20041;-68
2023/03/14 01:48:54;;;;;;;5.72;2.05;;;;;;;10.06;84.86;98786.25;5262616;28;20029;-68
2023/03/14 01:51:40;;;;;;;5.23;2.13;;;;;;;10.05;85.36;98784.56;5262802;28;20021;-68
2023/03/14 01:54:20;;;;;;;8.88;3.63;;;;;;;10.03;85.24;98771.63;5263636;28;20100;-68
2023/03/14 01:57:01;;;;;;;6.97;2.17;;;;;;;10.09;85.47;98778.31;5261744;28;20024;-68
2023/03/14 01:59:34;;;;;;;11.40;3.90;;;;;;;10.07;85.62;98774.94;5262714;28;20060;-67
2023/03/14 02:02:07;;;;;;;8.77;2.65;;;;;;;10.11;85.86;98775.66;5262401;28;20116;-68
2023/03/14 02:04:39;;;;;;;;;;;;;;;10.10;85.95;98773.97;5262936;28;20029;-67
2023/03/14 02:07:30;;;;;;;10.68;2.22;;;;;;;10.00;86.82;98769.16;5260947;28;19915;-67
2023/03/14 02:10:03;;;;;;;10.30;2.60;;;;;;;9.99;86.94;98769.22;5262533;28;20032;-67
2023/03/14 02:12:36;;;;;;;9.13;2.60;;;;;;;10.00;87.20;98768.31;5262438;28;20021;-67
2023/03/14 02:15:08;;;;;;;8.75;2.85;;;;;;;10.05;86.68;98779.38;5262813;28;20029;-67
2023/03/14 02:17:43;;;;;;;10.10;3.05;;;;;;;10.02;87.52;98771.69;5262954;28;20477;-67
2023/03/14 02:20:40;;;;;;;10.38;2.75;;;;;;;10.02;87.62;98767.31;5262369;28;20375;-67
2023/03/14 02:23:15;;;;;;;8.63;2.67;;;;;;;9.99;87.86;98767.44;5262696;28;20031;-68
2023/03/14 02:26:05;;;;;;;14.20;2.92;;;;;;;9.93;88.66;98765.09;5262341;28;20356;-67
2023/03/14 02:28:36;;;;;;;12.80;2.80;;;;;;;9.98;88.00;98777.94;5262336;28;20029;-67
2023/03/14 02:31:08;;;;;;;8.70;3.10;;;;;;;9.97;88.46;98752.81;5261612;28;20445;-68
2023/03/14 02:33:40;;;;;;;11.93;2.90;;;;;;;9.93;88.77;98756.47;5262968;28;20041;-67
2023/03/14 02:36:14;;;;;;;14.90;5.60;;;;;;;9.86;88.93;98758.47;5262330;28;20021;-66
2023/03/14 02:39:06;;;;;;;11.13;2.83;;;;;;;9.85;89.24;98756.78;5261742;28;20040;-67
2023/03/14 02:41:38;;;;;;;12.15;3.20;;;;;;;9.80;89.08;98740.53;5262260;28;20021;-67
2023/03/14 02:44:09;;;;;;;11.40;2.70;;;;;;;9.81;89.48;98737.00;5262337;28;20028;-66
2023/03/14 02:46:41;;;;;;;8.20;3.33;;;;;;;9.78;89.72;98737.97;5262278;28;20032;-67
2023/03/14 02:49:14;;;;;;;12.20;2.95;;;;;;;9.79;89.88;98750.09;5262104;28;20116;-67
2023/03/14 02:51:46;;;;;;;11.25;3.47;;;;;;;9.82;89.78;98738.69;5262171;28;20441;-67
2023/03/14 02:54:20;;;;;;;15.10;3.67;;;;;;;9.81;89.75;98744.81;5262202;28;20028;-67
2023/03/14 02:56:51;;;;;;;11.07;3.53;;;;;;;9.81;90.59;98744.81;5261834;28;20108;-67
2023/03/14 02:59:22;;;;;;;8.40;2.23;;;;;;;9.83;89.83;98762.03;5262145;28;20056;-67
2023/03/14 03:01:54;;;;;;;13.97;3.13;;;;;;;9.82;89.89;98757.78;5261738;28;20060;-67
2023/03/14 03:04:25;;;;;;;9.73;2.77;;;;;;;9.84;89.98;98739.50;5261814;28;20379;-67
2023/03/14 03:06:57;;;;;;;13.33;3.07;;;;;;;9.85;89.77;98757.66;5262103;28;20029;-67
2023/03/14 03:09:28;;;;;;;11.00;3.17;;;;;;;9.90;89.30;98752.25;5261927;28;20505;-66
2023/03/14 03:11:59;;;;;;;14.90;3.00;;;;;;;9.89;89.50;98752.31;5262055;28;20045;-66
2023/03/14 03:14:31;;;;;;;10.27;2.87;;;;;;;9.87;89.71;98762.78;5262304;28;20025;-67
2023/03/14 03:17:02;;;;;;;9.07;2.97;;;;;;;9.89;89.18;98754.91;5262021;28;20104;-67
2023/03/14 03:19:34;;;;;;;10.60;2.53;;;;;;;9.90;89.66;98751.38;5264177;28;20449;-67
2023/03/14 03:22:06;;;;;;;11.38;3.13;;;;;;;9.86;89.85;98748.91;5265677;28;20041;-67
2023/03/14 03:24:37;;;;;;;6.20;2.73;;;;;;;9.86;89.96;98745.47;5265960;28;20075;-66
2023/03/14 03:27:09;;;;;;;6.23;2.07;;;;;;;9.87;89.37;98744.56;5265305;28;20025;-67
2023/03/14 03:29:40;;;;;;;11.17;3.00;;;;;;;9.82;90.13;98736.94;5265508;28;20033;-66
2023/03/14 03:32:11;;;;;;;9.60;2.67;;;;;;;9.84;89.16;98744.69;5265311;28;20045;-66
2023/03/14 03:34:43;;;;;;;13.37;4.07;;;;;;;9.85;88.63;98738.56;5265511;28;20033;-67
2023/03/14 03:37:14;;;;;;;7.77;2.37;;;;;;;9.82;89.54;98738.69;5265404;28;20021;-67
2023/03/14 03:39:45;;;;;;;7.43;2.87;;;;;;;9.87;88.60;98744.56;5265393;28;20361;-67
2023/03/14 03:42:17;;;;;;;6.67;2.60;;;;;;;9.81;89.25;98737.84;5265656;28;20036;-67
2023/03/14 03:44:49;;;;;;;12.90;3.70;;;;;;;9.80;88.94;98733.56;5265314;28;20033;-67
2023/03/14 03:47:21;;;;;;;8.07;2.93;;;;;;;9.77;88.87;98723.31;5265969;28;20032;-66
2023/03/14 03:49:52;;;;;;;10.40;2.03;;;;;;;9.78;88.96;98724.13;5263709;28;20025;-66
2023/03/14 03:52:23;;;;;;;11.23;3.67;;;;;;;9.78;88.82;98727.56;5265196;28;20456;-67
2023/03/14 03:54:55;;;;;;;8.83;2.73;;;;;;;9.79;88.71;98720.63;5265121;28;20036;-66
2023/03/14 03:57:26;;;;;;;10.53;2.33;;;;;;;9.78;88.79;98729.34;5264698;28;20025;-66
2023/03/14 03:59:57;;;;;;;8.40;2.63;;;;;;;9.69;90.69;98733.16;5265031;28;20452;-67
2023/03/14 04:02:29;;;;;;;8.27;2.70;;;;;;;9.45;92.52;98728.09;5247118;28;20021;-67
2023/03/14 04:05:00;;;;;;;5.57;2.00;;;;;;;9.35;93.59;98724.16;5265471;28;20027;-66
2023/03/14 04:07:32;;;;;;;8.60;2.57;;;;;;;9.31;93.06;98725.19;5265187;28;20483;-67
2023/03/14 04:10:04;;;;;;;9.90;2.70;;;;;;;9.24;93.92;98723.75;5264740;28;20024;-67
2023/03/14 04:12:35;;;;;;;9.27;2.50;;;;;;;9.29;93.07;98714.88;5264704;28;20074;-66
2023/03/14 04:15:08;;;;;;;8.27;2.33;;;;;;;9.28;92.82;98723.56;5265275;28;20108;-67
2023/03/14 04:17:39;;;;;;;9.05;3.03;;;;;;;9.32;92.80;98719.06;5264297;28;20445;-67
2023/03/14 04:20:11;;;;;;;6.53;2.70;;;;;;;9.37;92.66;98721.50;5263125;28;20108;-66
2023/03/14 04:22:43;;;;;;;7.60;2.38;;;;;;;9.38;93.31;98729.22;5265029;28;20522;-67
2023/03/14 04:25:17;;;;;;;9.20;2.23;;;;;;;9.41;93.24;98716.09;5264428;28;20108;-67
2023/03/14 04:27:48;;;;;;;7.65;2.40;;;;;;;9.37;94.21;98722.34;5264899;28;20074;-66
2023/03/14 04:30:19;;;;;;;8.73;2.40;;;;;;;9.36;94.93;98715.47;5264268;28;20025;-67
2023/03/14 04:32:52;;;;;;;7.65;2.05;;;;;;;9.37;95.25;98719.75;5264599;28;20075;-67
2023/03/14 04:35:24;;;;;;;8.03;1.70;;;;;;;9.30;96.50;98715.69;5264247;28;20037;-67
2023/03/14 04:37:55;;;;;;;5.17;1.87;;;;;;;9.34;97.41;98712.09;5263946;28;20029;-66
2023/03/14 04:40:26;;;;;;;6.13;2.13;;;;;;;9.32;98.12;98706.06;5264155;28;20061;-66
2023/03/14 04:42:58;;;;;;;3.37;1.53;;;;;;;9.30;98.60;98700.09;5264129;28;20033;-67
2023/03/14 04:45:29;;;;;;;6.17;2.17;;;;;;;9.28;99.47;98705.38;5264079;28;20117;-66
2023/03/14 04:48:01;;;;;;;4.67;1.70;;;;;;;9.15;100.00;98704.19;5264129;28;20025;-67
2023/03/14 04:50:32;;;;;;;6.87;2.37;;;;;;;8.85;100.00;98691.47;5263594;28;20044;-66
2023/03/14 04:53:04;;;;;;;4.77;1.60;;;;;;;8.71;100.00;98705.03;5264017;28;20021;-66
2023/03/14 04:55:35;;;;;;;5.43;1.70;;;;;;;8.58;100.00;98706.38;5263613;28;20112;-66
2023/03/14 04:58:07;;;;;;;5.13;2.10;;;;;;;8.53;100.00;98710.91;5263740;28;20032;-66
2023/03/14 05:00:38;;;;;;;7.33;2.13;;;;;;;8.48;100.00;98705.03;5264061;28;20460;-67
2023/03/14 05:03:09;;;;;;;6.57;2.30;;;;;;;8.40;100.00;98716.53;5264046;28;20060;-66
2023/03/14 05:05:41;;;;;;;5.47;2.53;;;;;;;8.39;100.00;98709.66;5263799;28;20040;-67
2023/03/14 05:08:12;;;;;;;5.53;2.20;;;;;;;8.34;100.00;98711.56;5264243;28;20035;-67
2023/03/14 05:10:44;;;;;;;6.43;2.90;;;;;;;8.40;100.00;98705.28;5263509;28;20061;-67
2023/03/14 05:13:15;;;;;;;4.70;2.03;;;;;;;8.34;100.00;98703.78;5263540;28;20035;-67
2023/03/14 05:15:46;;;;;;;5.00;2.00;;;;;;;8.29;100.00;98692.75;5263485;28;20024;-66
2023/03/14 05:18:18;;;;;;;3.60;1.97;;;;;;;8.24;100.00;98702.41;5263494;28;20025;-67
2023/03/14 05:20:51;;;;;;;5.13;2.20;;;;;;;8.24;100.00;98704.19;5262217;28;20112;-67
2023/03/14 05:23:22;;;;;;;7.00;2.47;;;;;;;8.24;100.00;98702.41;5263382;28;20025;-67
2023/03/14 05:25:54;;;;;;;7.93;2.70;;;;;;;8.22;100.00;98701.63;5262311;28;20161;-66
2023/03/14 05:28:25;;;;;;;6.33;2.87;;;;;;;8.24;100.00;98704.19;5263455;28;20032;-66
2023/03/14 05:30:56;;;;;;;6.53;2.50;;;;;;;8.23;100.00;98692.97;5262487;28;20075;-66
2023/03/14 05:33:28;;;;;;;9.60;2.93;;;;;;;8.25;100.00;98690.31;5262894;28;20087;-66
2023/03/14 05:35:59;;;;;;;6.87;2.90;;;;;;;8.28;100.00;98680.66;5263083;28;20029;-66
2023/03/14 05:38:31;;;;;;;7.57;2.90;;;;;;;8.31;100.00;98682.31;5262985;28;20052;-65
2023/03/14 05:41:02;;;;;;;7.60;3.10;;;;;;;8.34;100.00;98687.34;5262630;28;20029;-66
2023/03/14 05:43:33;;;;;;;7.00;2.80;;;;;;;8.39;100.00;98681.09;5262859;28;20021;-66
2023/03/14 05:46:05;;;;;;;9.30;3.93;;;;;;;8.38;100.00;98676.78;5262773;28;20029;-66
2023/03/14 05:48:37;;;;;;;5.93;3.53;;;;;;;8.43;100.00;98680.97;5262573;28;20365;-66
2023/03/14 05:51:08;;;;;;;6.23;3.30;;;;;;;8.37;100.00;98677.72;5262700;28;20075;-66
2023/03/14 05:53:39;;;;;;;7.70;3.17;;;;;;;8.33;100.00;98670.09;5263317;28;20036;-65
2023/03/14 05:56:11;;;;;;;8.83;3.10;;;;;;;8.31;100.00;98680.53;5262955;28;20126;-66
2023/03/14 05:58:42;;;;;;;8.03;3.00;;;;;;;8.30;100.00;98678.00;5262691;28;20022;-65
2023/03/14 06:01:13;;;;;;;11.43;4.10;;;;;;;8.29;100.00;98671.09;5263051;28;20029;-66
2023/03/14 06:03:45;;;;;;;9.67;3.23;;;;;;;8.29;100.00;98669.38;5262648;28;20024;-66
2023/03/14 06:06:16;;;;;;;11.00;3.90;;;;;;;8.31;100.00;98664.13;5262431;28;20023;-67
2023/03/14 06:08:47;;;;;;;6.60;3.20;;;;;;;8.26;100.00;98664.28;5262167;28;20075;-66
2023/03/14 06:11:19;;;;;;;10.20;4.87;;;;;;;8.27;100.00;98673.75;5262402;28;20032;-66
2023/03/14 06:13:50;;;;;;;8.20;4.30;;;;;;;8.24;100.00;98668.66;5262668;28;20025;-66
2023/03/14 06:16:22;;;;;;;9.53;4.50;;;;;;;8.26;100.00;98671.22;5262668;28;20452;-66
2023/03/14 06:18:53;;;;;;;10.23;4.73;;;;;;;8.26;100.00;98673.81;5262353;28;20495;-66
2023/03/14 06:21:25;;;;;;;10.30;4.97;;;;;;;8.27;100.00;98667.72;5262442;28;20456;-66
2023/03/14 06:23:56;;;;;;;13.10;5.07;;;;;;;8.30;100.00;98670.22;5262220;28;20024;-66
2023/03/14 06:26:28;;;;;;;9.43;5.00;;;;;;;8.30;100.00;98668.44;5262035;28;20060;-66
2023/03/14 06:29:03;;;;;;;11.67;4.40;;;;;;;8.37;100.00;98675.13;5262235;28;20025;-66
2023/03/14 06:31:34;;;;;;;9.02;5.25;;;;;;;8.32;100.00;98681.38;5261959;28;20028;-67
2023/03/14 06:34:06;;;;;;;11.40;5.03;;;;;;;8.34;100.00;98676.97;5260960;28;20045;-66
2023/03/14 06:36:37;;;;;;;12.10;5.40;;;;;;;8.34;100.00;98662.25;5261724;28;20054;-66
2023/03/14 06:39:09;;;;;;;10.57;4.63;;;;;;;8.38;100.00;98681.97;5262109;28;20090;-66
2023/03/14 06:41:40;;;;;;;9.43;5.37;;;;;;;8.39;100.00;98681.09;5261972;28;20025;-66
2023/03/14 06:44:11;;;;;;;12.53;5.40;;;;;;;8.42;100.00;98682.75;5262062;28;20036;-66
2023/03/14 06:46:43;;;;;;;11.83;5.97;;;;;;;8.42;100.00;98687.94;5262222;28;20029;-66
2023/03/14 06:49:14;;;;;;;11.07;5.13;;;;;;;8.43;100.00;98683.56;5261623;28;20025;-66
2023/03/14 06:51:46;;;;;;;11.60;4.77;;;;;;;8.51;100.00;98691.94;5262119;28;20029;-66
2023/03/14 06:54:17;;;;;;;6.83;4.53;;;;;;;8.57;100.00;98695.16;5262566;28;20060;-66
2023/03/14 06:56:48;;;;;;;13.33;4.67;;;;;;;8.62;100.00;98699.34;5266164;28;20025;-66
2023/03/14 06:59:20;;;;;;;8.33;4.87;;;;;;;8.66;100.00;98693.97;5265878;28;20067;-66
2023/03/14 07:01:51;;;;;;;9.47;4.43;;;;;;;8.68;100.00;98699.94;5265810;28;20197;-66
2023/03/14 07:04:22;;;;;;;8.80;5.10;;;;;;;8.70;100.00;98702.50;5265803;28;20029;-67
2023/03/14 07:06:54;;;;;;;11.90;5.73;;;;;;;8.71;100.00;98704.16;5266382;28;20047;-66
2023/03/14 07:09:25;;;;;;;16.17;5.43;;;;;;;8.70;100.00;98705.91;5265597;28;20024;-67
2023/03/14 07:11:57;;;;;;;12.13;6.07;;;;;;;8.68;100.00;98710.34;5265752;28;20025;-66
2023/03/14 07:14:28;;;;;;;11.63;5.23;;;;;;;8.63;100.00;98708.81;5265812;28;20083;-67
2023/03/14 07:16:59;;;;;;;13.93;5.50;;;;;;;8.59;100.00;98723.66;5265962;28;20032;-66
2023/03/14 07:19:31;;;;;;;10.50;4.97;;;;;;;8.56;100.00;98723.78;5265782;28;20108;-67
2023/03/14 07:22:02;;;;;;;10.13;5.20;;;;;;;8.54;100.00;98736.81;5265509;28;20041;-66
2023/03/14 07:24:33;;;;;;;9.93;5.23;;;;;;;8.55;100.00;98741.13;5265882;28;20036;-67
2023/03/14 07:27:05;;;;;;;11.90;5.37;;;;;;;8.50;100.00;98745.66;5263977;28;20086;-66
2023/03/14 07:29:36;;;;;;;10.57;6.47;;;;;;;8.53;100.00;98789.69;5265264;28;20029;-67
2023/03/14 07:32:08;;;;;;;8.33;4.27;;;;;;;8.17;100.00;98828.13;5265135;28;20068;-67
2023/03/14 07:34:39;;;;;;;4.67;1.67;;;;;;;7.62;100.00;98831.66;5265196;28;20098;-66
2023/03/14 07:37:10;;;;;;;3.63;1.40;;;;;;;7.29;100.00;98849.09;5265258;28;20112;-66
2023/03/14 07:39:42;;;;;;;3.40;2.83;;;;;;;7.21;100.00;98864.91;5265570;28;20069;-66
2023/03/14 07:42:13;;;;;;;3.53;2.37;;;;;;;7.08;100.00;98871.31;5264122;28;20456;-68
2023/03/14 07:44:44;;;;;;;5.33;1.90;;;;;;;7.02;100.00;98880.13;5265452;28;20021;-67
2023/03/14 07:47:16;;;;;;;3.63;1.80;;;;;;;6.90;100.00;98885.66;5264987;28;20090;-67
2023/03/14 07:49:47;;;;;;;3.17;2.23;;;;;;;6.88;100.00;98887.47;5264840;28;20103;-67
2023/03/14 07:52:18;;;;;;;3.10;1.53;;;;;;;6.68;100.00;98909.56;5264824;28;20032;-67
2023/03/14 07:54:50;;;;;;;3.13;1.37;;;;;;;6.55;100.00;98916.81;5264872;28;20116;-67
2023/03/14 07:57:21;;;;;;;4.97;1.80;;;;;;;6.51;100.00;98933.31;5264420;28;20029;-67
2023/03/14 07:59:53;;;;;;;4.20;1.60;;;;;;;6.43;100.00;98932.66;5264816;28;20342;-66
2023/03/14 08:02:24;;;;;;;3.67;1.60;;;;;;;6.43;100.00;98934.41;5264611;28;20024;-66
2023/03/14 08:04:55;;;;;;;3.90;1.77;;;;;;;6.50;100.00;98946.28;5264774;28;20043;-66
2023/03/14 08:07:27;;;;;;;5.27;2.70;;;;;;;6.43;100.00;98952.53;5264934;28;20028;-66
2023/03/14 08:09:58;;;;;;;4.43;3.50;;;;;;;6.51;100.00;98963.53;5264216;28;20025;-66
2023/03/14 08:12:30;;;;;;;4.57;2.83;;;;;;;6.52;100.00;98976.44;5264526;28;20471;-66
2023/03/14 08:15:02;;;;;;;5.87;3.20;;;;;;;6.54;100.00;98974.66;5264573;28;20035;-66
2023/03/14 08:17:33;;;;;;;7.20;2.88;;;;;;;6.48;100.00;99003.28;5263989;28;20037;-66
2023/03/14 08:20:09;;;;;;;4.43;2.93;;;;;;;6.39;100.00;98996.59;5264417;28;20414;-66
2023/03/14 08:22:41;;;;;;;4.40;3.45;;;;;;;6.42;100.00;99007.75;5264294;28;20035;-67
2023/03/14 08:25:13;;;;;;;4.10;2.30;;;;;;;6.39;100.00;99035.41;5264608;28;20025;-67
2023/03/14 08:27:44;;;;;;;6.43;2.42;;;;;;;6.38;100.00;99030.28;5262979;28;20448;-67
2023/03/14 08:30:17;;;;;;;5.33;2.23;;;;;;;6.41;100.00;99042.28;5264139;28;20101;-67
2023/03/14 08:32:49;;;;;;;7.10;2.10;;;;;;;6.43;100.00;99054.31;5263704;28;20045;-67
2023/03/14 08:35:20;;;;;;;6.07;2.10;;;;;;;6.45;100.00;99075.81;5264044;28;20345;-67
2023/03/14 08:37:52;;;;;;;3.33;1.60;;;;;;;6.49;100.00;99074.88;5264026;28;20028;-67
2023/03/14 08:40:23;;;;;;;5.27;1.60;;;;;;;6.47;100.00;99080.97;5263964;28;20060;-67
2023/03/14 08:42:55;;;;;;;16.47;3.30;;;;;;;6.49;100.00;99090.41;5263846;28;20460;-67
2023/03/14 08:45:26;;;;;;;4.43;1.60;;;;;;;6.47;100.00;99096.50;5263520;28;20053;-67
2023/03/14 08:47:58;;;;;;;7.60;2.33;;;;;;;6.41;100.00;99102.69;5263834;28;20112;-67
2023/03/14 08:50:30;;;;;;;6.83;3.47;;;;;;;6.38;100.00;99105.34;5263836;28;20051;-67
2023/03/14 08:53:02;;;;;;;9.87;3.23;;;;;;;6.45;100.00;99127.59;5263823;28;20352;-66
2023/03/14 08:55:33;;;;;;;11.05;2.72;;;;;;;6.49;100.00;99130.97;5263918;28;20036;-67
2023/03/14 08:58:05;;;;;;;4.00;2.30;;;;;;;6.56;100.00;99135.13;5263681;28;20025;-67
2023/03/14 09:00:36;;;;;;;7.00;2.20;;;;;;;6.68;100.00;99139.16;5263793;28;20420;-67
2023/03/14 09:03:07;;;;;;;6.97;2.13;;;;;;;6.75;100.00;99162.28;5264060;28;20334;-65
2023/03/14 09:05:39;;;;;;;5.93;2.83;;;;;;;6.80;100.00;99154.41;5263443;28;20028;-66
2023/03/14 09:08:10;;;;;;;6.83;2.27;;;;;;;6.95;100.00;99158.38;5263949;28;20024;-66
2023/03/14 09:10:41;;;;;;;5.23;2.57;;;;;;;7.02;100.00;99172.88;5263612;28;20056;-66
2023/03/14 09:13:13;;;;;;;7.87;3.17;;;;;;;6.93;100.00;99183.47;5262155;28;20029;-66
2023/03/14 09:15:44;;;;;;;6.00;2.70;;;;;;;6.94;100.00;99187.78;5262989;28;20029;-66
2023/03/14 09:18:15;;;;;;;3.97;2.20;;;;;;;7.14;100.00;99202.00;5263041;28;20115;-67
2023/03/14 09:20:47;;;;;;;4.33;1.90;;;;;;;7.15;100.00;99203.66;5263308;28;20028;-67
2023/03/14 09:23:18;;;;;;;4.90;2.00;;;;;;;7.55;100.00;99219.09;5263193;28;20059;-67
2023/03/14 09:25:57;;;;;;;6.40;1.97;;;;;;;7.63;100.00;99227.53;5263166;28;20430;-67
2023/03/14 09:28:28;;;;;;;3.60;1.70;;;;;;;7.48;100.00;99240.88;5263080;28;20134;-67
2023/03/14 09:31:11;;;;;;;5.90;2.23;;;;;;;7.19;100.00;99254.56;5263019;28;20025;-67
2023/03/14 09:33:42;;;;;;;6.50;2.28;;;;;;;6.98;100.00;99253.31;5263770;28;20178;-67
2023/03/14 09:36:14;;;;;;;6.80;2.27;;;;;;;6.80;100.00;99255.41;5263064;28;20067;-68
2023/03/14 09:38:45;;;;;;;5.27;1.93;;;;;;;6.72;100.00;99280.63;5263333;28;20467;-65
2023/03/14 09:41:31;;;;;;;2.23;1.87;;;;;;;6.41;100.00;99316.63;5262799;28;20028;-66
2023/03/14 09:44:13;;;;;;;2.10;0.90;;;;;;;6.08;100.00;99324.16;5262708;28;20119;-66
2023/03/14 09:46:48;;;;;;;3.53;1.20;;;;;;;5.97;100.00;99335.56;5263353;28;20052;-67
2023/03/14 09:49:23;;;;;;;2.97;1.08;;;;;;;5.84;100.00;99352.97;5263151;28;20029;-65
2023/03/14 09:51:57;;;;;;;4.57;1.25;;;;;;;5.73;100.00;99357.47;5262779;28;20075;-66
2023/03/14 09:54:42;;;;;;;2.05;0.90;;;;;;;5.58;100.00;99383.56;5262425;28;20110;-66
2023/03/14 09:57:24;;;;;;;3.72;1.08;;;;;;;5.58;100.00;99391.31;5261908;28;20060;-66
2023/03/14 10:00:13;;;;;;;1.55;0.90;;;;;;;5.65;100.00;99413.59;5260871;28;20036;-66
2023/03/14 10:03:04;;;;;;;5.32;1.10;;;;;;;5.83;100.00;99426.25;5262483;28;20061;-67
2023/03/14 10:05:35;;;;;;;4.32;0.95;;;;;;;6.17;100.00;99438.69;5262934;28;20352;-67
2023/03/14 10:08:11;;;;;;;3.93;1.20;;;;;;;6.78;100.00;99450.56;5262481;28;20032;-68
2023/03/14 10:10:42;;;;;;;4.10;1.20;;;;;;;7.22;100.00;99469.59;5262547;28;20021;-67
2023/03/14 10:13:27;;;;;;;6.33;2.00;;;;;;;7.26;97.80;99474.69;5262434;28;20021;-67
2023/03/14 10:16:06;;;;;;;3.90;1.20;;;;;;;7.35;95.88;99478.81;5261331;28;20032;-67
2023/03/14 10:18:37;;;;;;;6.70;1.58;;;;;;;7.82;97.78;99504.63;5261431;28;20025;-67
2023/03/14 10:21:21;;;;;;;2.87;2.03;;;;;;;7.48;95.47;99523.50;5261993;28;20036;-67
2023/03/14 10:23:53;;;;;;;6.43;1.92;;;;;;;7.38;96.95;99527.19;5262260;28;20394;-66
2023/03/14 10:26:27;;;;;;;5.60;1.60;;;;;;;7.12;94.57;99537.16;5261925;28;20025;-66
2023/03/14 10:29:13;;;;;;;6.07;2.17;;;;;;;7.26;98.03;99548.97;5265370;28;20029;-66
2023/03/14 10:31:50;;;;;;;7.85;1.77;;;;;;;6.99;95.39;99563.31;5266459;28;20027;-66
2023/03/14 10:34:30;;;;;;;6.70;1.88;;;;;;;6.96;96.30;99576.34;5266929;28;20029;-66
2023/03/14 10:37:21;;;;;;;9.15;2.70;;;;;;;7.11;97.93;99570.88;5266399;28;20035;-66
2023/03/14 10:39:55;;;;;;;7.53;1.80;;;;;;;7.39;93.85;99591.09;5267030;28;20029;-66
2023/03/14 10:42:31;;;;;;;9.48;3.30;;;;;;;7.19;88.84;99601.84;5266189;28;20471;-67
2023/03/14 10:45:22;;;;;;;11.13;2.97;;;;;;;7.17;90.64;99611.38;5267283;28;20116;-66
2023/03/14 10:47:53;;;;;;;11.20;3.03;;;;;;;6.93;87.37;99619.53;5266365;28;20032;-66
2023/03/14 10:50:30;;;;;;;10.90;3.00;;;;;;;6.89;90.08;99633.44;5264963;28;20025;-66
2023/03/14 10:53:05;;;;;;;8.10;2.55;;;;;;;6.92;90.17;99648.94;5266544;28;20079;-66
2023/03/14 10:55:42;;;;;;;10.10;2.40;;;;;;;6.89;90.86;99654.16;5265975;28;20029;-66
2023/03/14 10:58:26;;;;;;;13.98;3.38;;;;;;;6.81;91.74;99668.09;5266441;28;20024;-66
2023/03/14 11:01:09;;;;;;;16.02;3.70;;;;;;;6.69;94.52;99667.41;5265953;28;20028;-65
2023/03/14 11:03:47;;;;;;;12.80;3.35;;;;;;;6.22;96.17;99687.03;5266598;28;20398;-65
2023/03/14 11:06:44;;;;;;;13.68;3.70;;;;;;;6.30;97.84;99699.88;5266509;28;20021;-66
2023/03/14 11:09:30;;;;;;;13.85;3.67;;;;;;;6.51;95.90;99709.94;5266222;28;20021;-66
2023/03/14 11:12:22;;;;;;;17.83;3.78;;;;;;;6.62;95.11;99711.53;5266147;28;20448;-66
2023/03/14 11:15:25;;;;;;;13.23;3.28;;;;;;;6.87;95.04;99733.59;5264778;28;20028;-67
2023/03/14 11:18:15;;;;;;;13.55;2.92;;;;;;;6.92;94.46;99736.13;5266575;28;20108;-67
2023/03/14 11:20:58;;;;;;;14.32;3.10;;;;;;;6.96;90.88;99743.00;5265909;28;20048;-67
2023/03/14 11:23:40;;;;;;;12.15;2.65;;;;;;;7.30;90.99;99750.25;5265464;28;20032;-67
2023/03/14 11:26:29;;;;;;;17.42;2.97;;;;;;;7.44;91.35;99760.41;5265593;28;20047;-66
2023/03/14 11:29:35;;;;;;;12.95;3.40;;;;;;;7.27;91.90;99761.50;5265519;28;20029;-66
2023/03/14 11:32:19;;;;;;;14.13;3.33;;;;;;;6.89;91.34;99785.41;5264186;28;20318;-66
2023/03/14 11:34:53;;;;;;;13.70;3.53;;;;;;;6.46;94.40;99786.81;5264933;28;20507;-66
2023/03/14 11:37:34;;;;;;;10.88;3.17;;;;;;;6.31;96.96;99808.56;5265290;28;20461;-66
2023/03/14 11:40:16;;;;;;;14.55;3.72;;;;;;;6.16;100.00;99835.44;5264290;28;20028;-66
2023/03/14 11:42:56;;;;;;;14.52;4.15;;;;;;;5.57;99.48;99850.59;5264606;28;20040;-67
2023/03/14 11:45:40;;;;;;;17.45;3.78;;;;;;;5.03;99.96;99844.91;5265287;28;20020;-66
2023/03/14 11:48:30;;;;;;;13.80;3.20;;;;;;;4.84;100.00;99831.22;5265245;28;20100;-66
2023/03/14 11:51:08;;;;;;;18.55;3.83;;;;;;;4.97;97.85;99838.03;5265218;28;20364;-66
2023/03/14 11:53:52;;;;;;;16.70;4.68;;;;;;;5.70;97.96;99840.16;5265082;28;20032;-66
2023/03/14 11:56:44;;;;;;;17.90;4.95;;;;;;;6.44;96.72;99849.84;5264595;28;20242;-66
2023/03/14 11:59:21;;;;;;;24.92;6.78;;;;;;;6.86;92.51;99858.84;5259808;28;20048;-67
2023/03/14 12:02:01;;;;;;;25.55;8.60;;;;;;;7.45;92.63;99869.28;5265168;28;20032;-66
2023/03/14 12:04:50;;;;;;;14.73;3.10;;;;;;;8.07;90.06;99875.25;5264709;28;20059;-66
2023/03/14 12:07:34;;;;;;;22.65;3.72;;;;;;;8.25;89.01;99885.28;5264337;28;20064;-66